createdAt,value
2023-01-26T00:01:31.302Z,69.73
2023-01-26T00:04:04.536Z,70.29
2023-01-26T00:06:37.402Z,69.90
2023-01-26T00:09:14.695Z,69.75
2023-01-26T00:11:47.599Z,69.96
2023-01-26T00:14:20.551Z,70.00
2023-01-26T00:16:55.364Z,69.58
2023-01-26T00:19:28.625Z,70.05
2023-01-26T00:22:01.529Z,70.00
2023-01-26T00:24:34.569Z,69.69
2023-01-26T00:27:07.501Z,70.25
2023-01-26T00:29:40.878Z,70.16
2023-01-26T00:32:15.266Z,70.15
2023-01-26T00:34:48.393Z,70.49
2023-01-26T00:37:21.438Z,70.38
2023-01-26T00:39:54.405Z,70.30
2023-01-26T00:42:27.333Z,70.16
2023-01-26T00:45:00.236Z,70.41
2023-01-26T00:47:34.687Z,70.29
2023-01-26T00:50:08.555Z,70.70
2023-01-26T00:52:41.576Z,70.57
2023-01-26T00:55:14.488Z,70.17
2023-01-26T00:57:47.394Z,70.00
2023-01-26T01:00:20.314Z,69.92
2023-01-26T01:02:56.357Z,69.67
2023-01-26T01:05:31.790Z,69.79
2023-01-26T01:08:04.815Z,69.74
2023-01-26T01:10:37.663Z,69.91
2023-01-26T01:13:10.619Z,69.78
2023-01-26T01:15:43.582Z,69.62
2023-01-26T01:18:17.951Z,69.54
2023-01-26T01:20:50.812Z,69.66
2023-01-26T01:23:23.781Z,69.90
2023-01-26T01:26:01.088Z,69.94
2023-01-26T01:28:34.821Z,70.21
2023-01-26T01:31:08.049Z,70.09
2023-01-26T01:33:42.683Z,69.91
2023-01-26T01:36:17.835Z,69.85
2023-01-26T01:38:50.836Z,69.97
2023-01-26T01:41:24.036Z,70.11
2023-01-26T01:44:13.393Z,69.61
2023-01-26T01:46:50.202Z,70.26
2023-01-26T01:49:28.328Z,70.15
2023-01-26T01:52:05.791Z,70.39
2023-01-26T01:54:41.915Z,70.25
2023-01-26T01:57:19.109Z,70.18
2023-01-26T01:59:56.532Z,70.39
2023-01-26T02:02:30.037Z,69.88
2023-01-26T02:05:11.526Z,70.02
2023-01-26T02:07:45.282Z,69.81
2023-01-26T02:10:22.280Z,69.47
2023-01-26T02:12:57.134Z,70.01
2023-01-26T02:15:31.699Z,70.13
2023-01-26T02:18:06.383Z,70.17
2023-01-26T02:20:46.619Z,70.16
2023-01-26T02:23:28.445Z,70.34
2023-01-26T02:26:14.002Z,70.98
2023-01-26T02:28:48.134Z,70.28
2023-01-26T02:31:21.316Z,70.31
2023-01-26T02:33:54.314Z,70.55
2023-01-26T02:36:29.594Z,70.45
2023-01-26T02:39:19.419Z,70.37
2023-01-26T02:42:11.861Z,70.63
2023-01-26T02:44:45.851Z,70.48
2023-01-26T02:47:20.467Z,70.37
2023-01-26T02:49:52.335Z,70.36
2023-01-26T02:52:27.292Z,70.11
2023-01-26T02:55:18.258Z,70.13
2023-01-26T02:57:53.747Z,70.08
2023-01-26T03:00:28.873Z,70.52
2023-01-26T03:03:03.219Z,70.55
2023-01-26T03:05:36.099Z,70.25
2023-01-26T03:08:09.020Z,69.93
2023-01-26T03:10:42.454Z,70.02
2023-01-26T03:13:16.732Z,69.72
2023-01-26T03:15:52.664Z,69.93
2023-01-26T03:18:42.968Z,69.48
2023-01-26T03:21:35.186Z,70.06
2023-01-26T03:24:29.654Z,69.87
2023-01-26T03:27:20.231Z,70.15
2023-01-26T03:29:54.888Z,69.98
2023-01-26T03:32:27.796Z,69.77
2023-01-26T03:35:00.619Z,69.99
2023-01-26T03:37:37.137Z,69.87
2023-01-26T03:40:29.008Z,70.16
2023-01-26T03:43:26.460Z,70.13
2023-01-26T03:46:21.785Z,69.93
2023-01-26T03:49:11.999Z,70.29
2023-01-26T03:52:01.979Z,70.21
2023-01-26T03:54:52.091Z,70.25
2023-01-26T03:57:24.911Z,70.06
2023-01-26T03:59:57.784Z,70.28
2023-01-26T04:02:49.421Z,70.24
2023-01-26T04:05:39.971Z,70.15
2023-01-26T04:08:21.880Z,69.79
2023-01-26T04:10:55.548Z,70.39
2023-01-26T04:13:45.716Z,69.91
2023-01-26T04:16:35.867Z,70.06
2023-01-26T04:19:27.655Z,70.19
2023-01-26T04:22:01.257Z,69.87
2023-01-26T04:24:34.110Z,70.14
2023-01-26T04:27:07.163Z,70.26
2023-01-26T04:29:40.116Z,69.75
2023-01-26T04:32:12.974Z,69.91
2023-01-26T04:34:47.261Z,69.97
2023-01-26T04:37:20.753Z,69.95
2023-01-26T04:39:53.698Z,69.64
2023-01-26T04:42:26.716Z,69.58
2023-01-26T04:44:59.981Z,69.61
2023-01-26T04:47:32.963Z,69.49
2023-01-26T04:50:08.288Z,69.42
2023-01-26T04:52:41.220Z,69.82
2023-01-26T04:55:14.130Z,69.71
2023-01-26T04:57:47.237Z,69.87
2023-01-26T05:00:21.496Z,69.68
2023-01-26T05:02:54.395Z,69.42
2023-01-26T05:05:28.674Z,69.95
2023-01-26T05:08:01.553Z,70.31
2023-01-26T05:10:34.808Z,70.00
2023-01-26T05:13:07.685Z,70.16
2023-01-26T05:15:40.800Z,70.03
2023-01-26T05:18:13.805Z,70.16
2023-01-26T05:20:48.581Z,70.30
2023-01-26T05:23:21.490Z,70.15
2023-01-26T05:25:54.393Z,70.01
2023-01-26T05:28:27.333Z,70.17
2023-01-26T05:31:00.265Z,70.16
2023-01-26T05:33:33.153Z,70.34
2023-01-26T05:36:08.863Z,69.98
2023-01-26T05:38:41.726Z,69.90
2023-01-26T05:41:14.598Z,70.12
2023-01-26T05:43:47.464Z,70.41
2023-01-26T05:46:20.325Z,70.01
2023-01-26T05:48:54.290Z,70.05
2023-01-26T05:51:28.532Z,69.95
2023-01-26T05:54:01.412Z,69.83
2023-01-26T05:56:34.308Z,69.41
2023-01-26T05:59:07.201Z,69.97
2023-01-26T06:01:40.438Z,69.78
2023-01-26T06:04:13.379Z,69.87
2023-01-26T06:06:47.742Z,69.64
2023-01-26T06:09:21.247Z,69.85
2023-01-26T06:11:54.129Z,69.48
2023-01-26T06:14:27.039Z,69.20
2023-01-26T06:16:59.917Z,69.20
2023-01-26T06:19:32.773Z,69.49
2023-01-26T06:22:09.131Z,69.37
2023-01-26T06:24:42.348Z,69.24
2023-01-26T06:27:16.734Z,69.42
2023-01-26T06:29:49.804Z,69.21
2023-01-26T06:32:22.652Z,68.98
2023-01-26T06:34:55.638Z,68.78
2023-01-26T06:37:29.940Z,69.20
2023-01-26T06:40:02.881Z,69.16
2023-01-26T06:42:35.802Z,69.29
2023-01-26T06:45:09.654Z,68.92
2023-01-26T06:47:46.577Z,68.75
2023-01-26T06:50:24.174Z,69.04
2023-01-26T06:53:00.967Z,69.29
2023-01-26T06:55:38.428Z,69.17
2023-01-26T06:58:12.162Z,69.65
2023-01-26T07:00:45.260Z,69.17
2023-01-26T07:03:18.147Z,68.55
2023-01-26T07:05:51.242Z,69.16
2023-01-26T07:08:25.558Z,69.02
2023-01-26T07:10:58.480Z,69.34
2023-01-26T07:13:31.336Z,68.73
2023-01-26T07:16:05.663Z,69.47
2023-01-26T07:18:38.939Z,69.74
2023-01-26T07:21:13.709Z,69.89
2023-01-26T07:23:48.308Z,69.83
2023-01-26T07:26:21.684Z,70.13
2023-01-26T07:28:54.797Z,70.17
2023-01-26T07:31:27.847Z,70.39
2023-01-26T07:34:00.724Z,70.58
2023-01-26T07:36:33.577Z,70.35
2023-01-26T07:39:08.773Z,70.35
2023-01-26T07:41:41.724Z,70.41
2023-01-26T07:44:15.108Z,70.67
2023-01-26T07:46:48.061Z,70.64
2023-01-26T07:49:20.892Z,70.65
2023-01-26T07:51:54.254Z,70.56
2023-01-26T07:54:28.694Z,70.67
2023-01-26T07:57:01.994Z,70.60
2023-01-26T07:59:35.496Z,70.86
2023-01-26T08:02:10.790Z,70.20
2023-01-26T08:04:43.742Z,70.23
2023-01-26T08:07:16.677Z,70.10
2023-01-26T08:09:50.903Z,70.09
2023-01-26T08:12:23.788Z,69.90
2023-01-26T08:14:56.629Z,70.11
2023-01-26T08:17:30.106Z,70.37
2023-01-26T08:20:03.666Z,70.59
2023-01-26T08:22:36.620Z,70.41
2023-01-26T08:25:11.473Z,70.57
2023-01-26T08:27:44.392Z,70.15
2023-01-26T08:30:18.390Z,70.09
2023-01-26T08:32:51.303Z,70.17
2023-01-26T08:35:24.183Z,69.93
2023-01-26T08:37:57.003Z,70.26
2023-01-26T08:40:31.186Z,70.26
2023-01-26T08:43:04.776Z,69.87
2023-01-26T08:45:37.741Z,69.64
2023-01-26T08:48:10.654Z,70.13
2023-01-26T08:50:43.582Z,69.85
2023-01-26T08:53:16.492Z,69.55
2023-01-26T08:55:50.842Z,69.73
2023-01-26T08:58:23.742Z,69.77
2023-01-26T09:00:56.887Z,69.50
2023-01-26T09:03:29.888Z,69.63
2023-01-26T09:06:05.418Z,69.23
2023-01-26T09:08:38.665Z,69.18
2023-01-26T09:11:13.379Z,69.64
2023-01-26T09:13:46.355Z,69.48
2023-01-26T09:16:21.193Z,69.34
2023-01-26T09:18:55.444Z,69.69
2023-01-26T09:21:28.338Z,69.29
2023-01-26T09:24:01.328Z,69.70
2023-01-26T09:26:35.640Z,69.22
2023-01-26T09:29:08.763Z,69.52
2023-01-26T09:31:41.734Z,69.83
2023-01-26T09:34:14.840Z,69.75
2023-01-26T09:36:47.693Z,69.65
2023-01-26T09:39:20.635Z,69.65
2023-01-26T09:42:08.816Z,68.68
2023-01-26T09:44:51.928Z,69.28
2023-01-26T09:47:32.114Z,69.02
2023-01-26T09:50:11.959Z,69.02
2023-01-26T09:52:55.551Z,68.82
2023-01-26T09:55:30.374Z,68.45
2023-01-26T09:58:07.917Z,68.85
2023-01-26T10:00:47.524Z,68.88
2023-01-26T10:03:28.361Z,69.20
2023-01-26T10:06:08.844Z,68.48
2023-01-26T10:08:44.672Z,69.19
2023-01-26T10:11:24.852Z,69.20
2023-01-26T10:14:03.876Z,68.71
2023-01-26T10:16:36.783Z,68.93
2023-01-26T10:19:17.904Z,69.17
2023-01-26T10:21:52.452Z,69.09
2023-01-26T10:24:25.369Z,69.07
2023-01-26T10:26:59.399Z,69.56
2023-01-26T10:29:33.993Z,68.99
2023-01-26T10:32:07.618Z,69.29
2023-01-26T10:34:41.128Z,69.38
2023-01-26T10:37:22.640Z,69.04
2023-01-26T10:40:03.975Z,68.98
2023-01-26T10:42:37.595Z,69.43
2023-01-26T10:45:29.012Z,69.28
2023-01-26T10:48:19.294Z,69.26
2023-01-26T10:50:52.510Z,70.00
2023-01-26T10:53:28.363Z,69.63
2023-01-26T10:56:04.126Z,69.78
2023-01-26T10:58:50.629Z,67.14
2023-01-26T11:01:27.602Z,68.69
2023-01-26T11:04:07.309Z,68.65
2023-01-26T11:06:40.510Z,68.74
2023-01-26T11:09:20.026Z,69.02
2023-01-26T11:11:58.537Z,68.72
2023-01-26T11:14:32.567Z,68.36
2023-01-26T11:17:20.629Z,68.73
2023-01-26T11:20:11.642Z,67.92
2023-01-26T11:22:56.022Z,68.56
2023-01-26T11:25:36.425Z,68.38
2023-01-26T11:28:32.423Z,67.55
2023-01-26T11:31:24.197Z,67.83
2023-01-26T11:34:09.059Z,68.69
2023-01-26T11:36:50.384Z,68.46
2023-01-26T11:39:30.418Z,67.98
2023-01-26T11:42:14.738Z,68.01
2023-01-26T11:45:04.620Z,67.82
2023-01-26T11:47:51.584Z,67.54
2023-01-26T11:50:36.621Z,67.81
2023-01-26T11:53:37.798Z,68.27
2023-01-26T11:56:25.511Z,68.01
2023-01-26T11:59:04.524Z,68.33
2023-01-26T12:01:42.585Z,67.68
2023-01-26T12:04:20.379Z,68.18
2023-01-26T12:06:59.963Z,67.58
2023-01-26T12:09:39.724Z,67.29
2023-01-26T12:12:18.869Z,67.52
2023-01-26T12:14:58.826Z,67.77
2023-01-26T12:17:41.506Z,67.74
2023-01-26T12:20:26.344Z,67.83
2023-01-26T12:23:05.859Z,67.77
2023-01-26T12:25:41.175Z,68.01
2023-01-26T12:28:20.668Z,67.48
2023-01-26T12:31:03.254Z,67.44
2023-01-26T12:33:37.494Z,68.21
2023-01-26T12:36:21.416Z,67.39
2023-01-26T12:39:17.492Z,67.40
2023-01-26T12:42:08.628Z,67.86
2023-01-26T12:44:43.635Z,67.71
2023-01-26T12:47:22.759Z,68.07
2023-01-26T12:50:01.403Z,67.75
2023-01-26T12:52:40.837Z,66.63
2023-01-26T12:55:19.579Z,66.97
2023-01-26T12:57:59.065Z,66.75
2023-01-26T13:00:35.652Z,67.07
2023-01-26T13:03:18.328Z,66.36
2023-01-26T13:05:58.018Z,66.83
2023-01-26T13:08:53.919Z,66.57
2023-01-26T13:11:46.741Z,65.79
2023-01-26T13:14:35.589Z,66.41
2023-01-26T13:17:48.848Z,66.33
2023-01-26T13:20:47.404Z,66.50
2023-01-26T13:23:44.540Z,66.50
2023-01-26T13:26:20.218Z,67.61
2023-01-26T13:29:31.925Z,67.25
2023-01-26T13:32:58.107Z,66.53
2023-01-26T13:35:32.442Z,66.61
2023-01-26T13:38:14.920Z,67.53
2023-01-26T13:40:50.434Z,67.28
2023-01-26T13:43:30.791Z,67.38
2023-01-26T13:46:12.208Z,67.01
2023-01-26T13:48:48.693Z,67.48
2023-01-26T13:51:25.021Z,67.82
2023-01-26T13:54:02.119Z,67.96
2023-01-26T13:56:37.324Z,68.02
2023-01-26T13:59:13.062Z,67.94
2023-01-26T14:01:49.083Z,67.88
2023-01-26T14:04:23.854Z,67.92
2023-01-26T14:07:02.263Z,68.05
2023-01-26T14:09:44.332Z,68.10
2023-01-26T14:12:22.884Z,67.62
2023-01-26T14:14:58.562Z,68.20
2023-01-26T14:17:34.768Z,67.75
2023-01-26T14:20:22.440Z,67.42
2023-01-26T14:23:14.626Z,67.54
2023-01-26T14:25:57.558Z,67.57
2023-01-26T14:28:34.490Z,68.42
2023-01-26T14:31:15.123Z,67.76
2023-01-26T14:33:52.056Z,67.54
2023-01-26T14:36:26.917Z,67.56
2023-01-26T14:39:01.325Z,67.89
2023-01-26T14:41:37.869Z,67.60
2023-01-26T14:44:11.441Z,67.93
2023-01-26T14:47:00.700Z,67.61
2023-01-26T14:49:44.731Z,67.43
2023-01-26T14:52:25.077Z,68.07
2023-01-26T14:55:00.426Z,68.17
2023-01-26T14:57:34.251Z,68.06
2023-01-26T15:00:10.284Z,67.74
2023-01-26T15:02:45.415Z,68.03
2023-01-26T15:05:22.652Z,67.61
2023-01-26T15:07:59.203Z,68.11
2023-01-26T15:10:41.042Z,67.71
2023-01-26T15:13:21.295Z,68.83
2023-01-26T15:16:05.607Z,67.87
2023-01-26T15:18:38.760Z,68.33
2023-01-26T15:21:16.124Z,68.43
2023-01-26T15:23:52.026Z,68.37
2023-01-26T15:26:28.359Z,67.97
2023-01-26T15:29:03.048Z,68.69
2023-01-26T15:31:38.250Z,68.36
2023-01-26T15:34:32.800Z,67.55
2023-01-26T15:37:32.130Z,68.47
2023-01-26T15:40:05.771Z,68.74
2023-01-26T15:42:38.595Z,68.59
2023-01-26T15:45:23.070Z,68.18
2023-01-26T15:47:56.207Z,68.46
2023-01-26T15:50:29.169Z,68.43
2023-01-26T15:53:03.504Z,68.46
2023-01-26T15:55:37.823Z,68.82
2023-01-26T15:58:10.744Z,68.68
2023-01-26T16:00:43.676Z,68.94
2023-01-26T16:03:19.428Z,68.96
2023-01-26T16:05:52.728Z,68.36
2023-01-26T16:08:27.036Z,68.15
2023-01-26T16:10:59.957Z,68.37
2023-01-26T16:13:34.145Z,68.60
2023-01-26T16:16:10.468Z,68.55
2023-01-26T16:18:43.371Z,68.82
2023-01-26T16:21:20.205Z,68.53
2023-01-26T16:23:54.532Z,68.98
2023-01-26T16:26:28.598Z,68.69
2023-01-26T16:29:01.493Z,68.42
2023-01-26T16:31:36.724Z,68.53
2023-01-26T16:34:11.267Z,69.24
2023-01-26T16:36:44.174Z,69.14
2023-01-26T16:39:18.512Z,69.21
2023-01-26T16:41:51.707Z,69.26
2023-01-26T16:44:24.677Z,69.06
2023-01-26T16:46:57.851Z,69.20
2023-01-26T16:49:30.742Z,69.62
2023-01-26T16:52:03.900Z,69.05
2023-01-26T16:54:38.551Z,68.91
2023-01-26T16:57:11.421Z,68.90
2023-01-26T16:59:44.307Z,69.03
2023-01-26T17:02:25.732Z,68.78
2023-01-26T17:04:58.577Z,68.90
2023-01-26T17:07:31.487Z,69.35
2023-01-26T17:10:06.287Z,69.08
2023-01-26T17:12:39.605Z,68.79
2023-01-26T17:15:13.709Z,69.01
2023-01-26T17:17:49.657Z,68.94
2023-01-26T17:20:22.675Z,69.05
2023-01-26T17:22:55.540Z,68.69
2023-01-26T17:25:29.830Z,68.54
2023-01-26T17:28:03.500Z,68.66
2023-01-26T17:30:36.799Z,68.81
2023-01-26T17:33:09.769Z,68.92
2023-01-26T17:35:42.665Z,68.76
2023-01-26T17:38:15.544Z,68.89
2023-01-26T17:40:55.686Z,69.04
2023-01-26T17:43:29.238Z,69.02
2023-01-26T17:46:07.482Z,68.91
2023-01-26T17:48:40.715Z,68.90
2023-01-26T17:51:16.552Z,68.70
2023-01-26T17:53:50.688Z,69.16
2023-01-26T17:56:25.053Z,68.79
2023-01-26T17:58:58.012Z,69.06
2023-01-26T18:01:31.038Z,69.04
2023-01-26T18:04:04.046Z,69.05
2023-01-26T18:06:38.645Z,68.98
2023-01-26T18:09:11.599Z,69.09
2023-01-26T18:11:45.955Z,68.69
2023-01-26T18:14:18.961Z,69.06
2023-01-26T18:16:51.862Z,69.20
2023-01-26T18:19:25.076Z,68.92
2023-01-26T18:21:57.946Z,68.45
2023-01-26T18:24:31.110Z,68.59
2023-01-26T18:27:05.376Z,68.69
2023-01-26T18:29:38.264Z,68.77
2023-01-26T18:32:11.204Z,68.46
2023-01-26T18:34:44.159Z,68.83
2023-01-26T18:37:17.221Z,68.65
2023-01-26T18:39:50.251Z,68.79
2023-01-26T18:42:24.464Z,68.57
2023-01-26T18:45:01.406Z,68.49
2023-01-26T18:47:34.295Z,68.66
2023-01-26T18:50:08.605Z,68.77
2023-01-26T18:52:42.005Z,68.36
2023-01-26T18:55:15.273Z,67.92
2023-01-26T18:57:50.845Z,67.70
2023-01-26T19:00:24.180Z,67.69
2023-01-26T19:02:57.015Z,68.04
2023-01-26T19:05:31.538Z,68.28
2023-01-26T19:08:10.706Z,68.38
2023-01-26T19:10:43.589Z,68.51
2023-01-26T19:13:18.220Z,68.43
2023-01-26T19:15:52.291Z,68.82
2023-01-26T19:18:25.339Z,68.69
2023-01-26T19:20:58.793Z,68.61
2023-01-26T19:23:32.292Z,68.98
2023-01-26T19:26:11.415Z,68.52
2023-01-26T19:28:47.001Z,68.41
2023-01-26T19:31:21.796Z,68.41
2023-01-26T19:33:56.482Z,68.62
2023-01-26T19:36:31.525Z,68.81
2023-01-26T19:39:06.614Z,68.40
2023-01-26T19:41:40.276Z,68.49
2023-01-26T19:44:14.931Z,67.86
2023-01-26T19:46:50.799Z,67.73
2023-01-26T19:49:23.667Z,68.05
2023-01-26T19:51:56.736Z,68.11
2023-01-26T19:54:29.600Z,67.65
2023-01-26T19:57:02.496Z,67.67
2023-01-26T19:59:36.779Z,67.99
2023-01-26T20:02:10.764Z,67.65
2023-01-26T20:04:45.222Z,67.72
2023-01-26T20:07:18.129Z,67.88
2023-01-26T20:09:51.122Z,67.73
2023-01-26T20:12:24.299Z,68.02
2023-01-26T20:15:00.573Z,67.47
2023-01-26T20:17:33.997Z,67.75
2023-01-26T20:20:08.284Z,68.02
2023-01-26T20:22:41.301Z,67.30
2023-01-26T20:25:14.283Z,67.59
2023-01-26T20:27:47.471Z,67.27
2023-01-26T20:30:21.958Z,67.25
2023-01-26T20:32:55.175Z,67.18
2023-01-26T20:35:28.252Z,67.34
2023-01-26T20:38:01.557Z,67.31
2023-01-26T20:40:34.444Z,66.68
2023-01-26T20:43:07.345Z,66.77
2023-01-26T20:45:42.226Z,66.81
2023-01-26T20:48:15.531Z,66.66
2023-01-26T20:50:48.725Z,66.38
2023-01-26T20:53:22.111Z,66.25
2023-01-26T20:55:58.600Z,66.31
2023-01-26T20:58:31.509Z,66.56
2023-01-26T21:01:06.896Z,66.05
2023-01-26T21:03:40.681Z,66.76
2023-01-26T21:06:15.543Z,66.62
2023-01-26T21:08:49.293Z,66.77
2023-01-26T21:11:23.740Z,66.47
2023-01-26T21:13:57.182Z,66.05
2023-01-26T21:16:32.611Z,66.63
2023-01-26T21:19:05.597Z,66.38
2023-01-26T21:21:38.588Z,66.61
2023-01-26T21:24:11.941Z,66.58
2023-01-26T21:26:44.898Z,66.55
2023-01-26T21:29:18.193Z,66.77
2023-01-26T21:31:52.574Z,66.52
2023-01-26T21:34:25.683Z,66.83
2023-01-26T21:36:58.544Z,66.68
2023-01-26T21:39:31.851Z,66.24
2023-01-26T21:42:05.117Z,66.32
2023-01-26T21:44:58.144Z,66.13
2023-01-26T21:47:32.743Z,65.95
2023-01-26T21:50:06.344Z,66.08
2023-01-26T21:52:56.689Z,66.29
2023-01-26T21:55:29.634Z,66.33
2023-01-26T21:58:25.012Z,66.37
2023-01-26T22:01:06.852Z,65.60
2023-01-26T22:03:41.190Z,65.97
2023-01-26T22:06:14.144Z,65.70
2023-01-26T22:08:47.008Z,65.90
2023-01-26T22:11:20.161Z,66.35
2023-01-26T22:13:53.371Z,66.23
2023-01-26T22:16:28.002Z,65.99
2023-01-26T22:19:03.682Z,66.40
2023-01-26T22:21:36.611Z,66.20
2023-01-26T22:24:12.045Z,66.46
2023-01-26T22:26:45.507Z,66.48
2023-01-26T22:29:18.524Z,66.17
2023-01-26T22:31:51.943Z,66.50
2023-01-26T22:34:26.733Z,66.50
2023-01-26T22:36:59.841Z,66.71
2023-01-26T22:39:32.634Z,66.21
2023-01-26T22:42:05.692Z,66.48
2023-01-26T22:44:38.579Z,66.42
2023-01-26T22:47:11.515Z,66.57
2023-01-26T22:49:45.811Z,66.64
2023-01-26T22:52:19.053Z,66.59
2023-01-26T22:54:51.896Z,66.76
2023-01-26T22:57:25.098Z,66.57
2023-01-26T22:59:58.245Z,66.36
2023-01-26T23:02:31.117Z,66.18
2023-01-26T23:05:08.047Z,66.16
2023-01-26T23:07:40.926Z,66.54
2023-01-26T23:10:14.202Z,66.63
2023-01-26T23:12:47.211Z,66.53
2023-01-26T23:15:20.112Z,66.00
2023-01-26T23:17:53.875Z,66.53
2023-01-26T23:20:28.120Z,66.51
2023-01-26T23:23:01.166Z,66.67
2023-01-26T23:25:52.251Z,66.46
2023-01-26T23:28:26.809Z,66.59
2023-01-26T23:31:00.618Z,66.57
2023-01-26T23:33:35.609Z,66.56
2023-01-26T23:36:12.602Z,66.60
2023-01-26T23:38:45.867Z,66.19
2023-01-26T23:41:18.860Z,66.47
2023-01-26T23:43:51.776Z,66.41
2023-01-26T23:46:24.734Z,66.34
2023-01-26T23:48:57.622Z,66.58
2023-01-26T23:51:32.029Z,66.20
2023-01-26T23:54:05.321Z,66.11
2023-01-26T23:56:38.227Z,66.60
2023-01-26T23:59:11.145Z,66.07
